Time;durP1;ratioP1;P1;durP2;ratioP2;P2;SDS_P1;SDS_P2;PMS_P1;PMS_P2;Temp;Humidity;BMP_temperature;BMP_pressure;BME280_temperature;BME280_humidity;BME280_pressure;Samples;Min_cycle;Max_cycle;Signal;HPM_P1;HPM_P2
2021/09/14 00:01:58;;;;;;;30.30;23.77;;;13.80;99.90;;;;;;5090684;28;20185;-55
2021/09/14 00:04:24;;;;;;;24.50;21.60;;;13.80;99.90;;;;;;5072301;28;20242;-56
2021/09/14 00:06:49;;;;;;;24.73;22.20;;;13.80;99.90;;;;;;5070261;28;20202;-54
2021/09/14 00:09:15;;;;;;;25.53;23.03;;;13.80;99.90;;;;;;5069652;28;20193;-57
2021/09/14 00:11:40;;;;;;;25.13;22.47;;;13.80;99.90;;;;;;5070366;28;20177;-55
2021/09/14 00:14:06;;;;;;;25.30;22.60;;;13.80;99.90;;;;;;5070544;28;20536;-59
2021/09/14 00:16:32;;;;;;;25.43;22.80;;;13.80;99.90;;;;;;5089183;28;20181;-58
2021/09/14 00:18:58;;;;;;;24.77;22.30;;;13.80;99.90;;;;;;5071786;28;20971;-53
2021/09/14 00:21:24;;;;;;;25.07;22.50;;;13.80;99.90;;;;;;5070347;28;20306;-59
2021/09/14 00:23:49;;;;;;;24.53;22.20;;;13.80;99.90;;;;;;5081172;28;20212;-54
2021/09/14 00:26:15;;;;;;;24.50;22.07;;;13.80;99.90;;;;;;5090346;28;20422;-57
2021/09/14 00:28:41;;;;;;;24.53;22.03;;;13.90;99.90;;;;;;5080082;28;20181;-55
2021/09/14 00:31:06;;;;;;;24.13;21.70;;;13.90;99.90;;;;;;5079039;28;20245;-54
2021/09/14 00:33:32;;;;;;;24.90;22.50;;;13.90;99.90;;;;;;5081118;28;20196;-54
2021/09/14 00:35:57;;;;;;;27.10;23.23;;;13.90;99.90;;;;;;5079998;28;20536;-55
2021/09/14 00:38:23;;;;;;;25.93;22.10;;;13.90;99.90;;;;;;5085996;28;20185;-55
2021/09/14 00:40:48;;;;;;;24.90;22.40;;;13.90;99.90;;;;;;5071622;28;20220;-54
2021/09/14 00:43:21;;;;;;;26.20;23.60;;;13.90;99.90;;;;;;5070209;28;20233;-55
2021/09/14 00:45:48;;;;;;;25.63;23.03;;;13.80;99.90;;;;;;5065543;28;20829;-55
2021/09/14 00:48:14;;;;;;;25.13;22.73;;;13.80;99.90;;;;;;5070466;28;20423;-55
2021/09/14 00:50:41;;;;;;;26.00;23.40;;;13.90;99.90;;;;;;5081163;28;20418;-58
2021/09/14 00:53:07;;;;;;;24.97;22.57;;;13.80;99.90;;;;;;5081088;28;20547;-54
2021/09/14 00:55:33;;;;;;;25.50;22.90;;;13.90;99.90;;;;;;5091671;28;20509;-51
2021/09/14 00:57:58;;;;;;;25.27;22.70;;;13.90;99.90;;;;;;5080200;28;20319;-54
2021/09/14 01:00:24;;;;;;;26.37;22.40;;;13.90;99.90;;;;;;5071371;28;20235;-52
2021/09/14 01:02:50;;;;;;;24.80;22.40;;;13.90;99.90;;;;;;5068871;28;20223;-52
2021/09/14 01:05:16;;;;;;;24.67;22.17;;;13.90;99.90;;;;;;5071030;28;20183;-54
2021/09/14 01:07:42;;;;;;;24.13;21.83;;;13.90;99.90;;;;;;5073066;28;20199;-58
2021/09/14 01:10:11;;;;;;;25.00;22.30;;;13.90;99.90;;;;;;5090047;28;20419;-54
2021/09/14 01:12:38;;;;;;;24.53;21.47;;;13.90;99.90;;;;;;5070434;28;20472;-56
2021/09/14 01:15:04;;;;;;;24.70;22.13;;;14.00;99.90;;;;;;5085999;28;20564;-57
2021/09/14 01:17:29;;;;;;;25.20;22.60;;;14.00;99.90;;;;;;5085287;28;20523;-55
2021/09/14 01:19:55;;;;;;;24.07;21.70;;;14.00;99.90;;;;;;5085579;28;20527;-55
2021/09/14 01:22:25;;;;;;;24.43;22.03;;;14.00;99.90;;;;;;5070682;28;20263;-50
2021/09/14 01:24:51;;;;;;;24.30;21.80;;;14.10;99.90;;;;;;5070746;28;20182;-55
2021/09/14 01:27:16;;;;;;;23.37;21.00;;;14.10;99.90;;;;;;5078408;28;20787;-55
2021/09/14 01:32:26;;;;;;;22.80;20.40;;;14.10;99.90;;;;;;5075275;28;20274;-53
2021/09/14 01:34:52;;;;;;;22.53;20.23;;;14.10;99.90;;;;;;5087123;28;20446;-54
2021/09/14 01:37:17;;;;;;;23.57;21.20;;;14.10;99.90;;;;;;5072633;28;20189;-54
2021/09/14 01:39:43;;;;;;;23.97;21.37;;;14.10;99.90;;;;;;5083911;28;20201;-56
2021/09/14 01:42:08;;;;;;;23.97;21.57;;;14.00;99.90;;;;;;5067976;28;20190;-56
2021/09/14 01:44:34;;;;;;;23.47;20.83;;;13.90;99.90;;;;;;5057023;28;20189;-48
2021/09/14 01:46:59;;;;;;;23.90;21.50;;;13.80;99.90;;;;;;5068287;28;20185;-56
2021/09/14 01:49:25;;;;;;;23.70;21.20;;;13.70;99.90;;;;;;5068943;28;20627;-54
2021/09/14 01:51:50;;;;;;;23.13;20.70;;;13.70;99.90;;;;;;5068176;28;20186;-56
2021/09/14 01:54:16;;;;;;;23.27;20.87;;;13.70;99.90;;;;;;5078736;28;20874;-56
2021/09/14 01:56:41;;;;;;;21.73;19.53;;;13.70;99.90;;;;;;5078215;28;20217;-56
2021/09/14 01:59:07;;;;;;;23.10;20.70;;;13.70;99.90;;;;;;5068994;28;20189;-55
2021/09/14 02:01:40;;;;;;;22.90;20.50;;;13.60;99.90;;;;;;5068482;28;20807;-56
2021/09/14 02:04:12;;;;;;;22.60;20.20;;;13.60;99.90;;;;;;5087599;28;20540;-57
2021/09/14 02:42:35;;;;;;;22.60;20.30;;;13.10;99.90;;;;;;5069216;28;20560;-55
2021/09/14 03:01:04;;;;;;;23.90;21.37;;;13.00;99.90;;;;;;5071273;28;20550;-54
2021/09/14 03:03:29;;;;;;;23.40;20.83;;;13.00;99.90;;;;;;5071318;28;20566;-55
2021/09/14 03:05:55;;;;;;;23.50;21.00;;;13.10;99.90;;;;;;5070820;28;20786;-54
2021/09/14 03:08:21;;;;;;;25.10;21.30;;;13.10;99.90;;;;;;5071871;28;20650;-53
2021/09/14 03:10:46;;;;;;;24.50;21.73;;;13.10;99.90;;;;;;5071835;28;20257;-57
2021/09/14 03:13:12;;;;;;;23.30;20.43;;;13.10;99.90;;;;;;5086446;28;20192;-59
2021/09/14 03:15:37;;;;;;;23.97;21.47;;;13.20;99.90;;;;;;5087437;28;20980;-56
2021/09/14 03:18:03;;;;;;;23.07;20.67;;;13.20;99.90;;;;;;5071417;28;20206;-57
2021/09/14 03:20:28;;;;;;;24.37;21.80;;;13.20;99.90;;;;;;5071024;28;20189;-56
2021/09/14 03:22:54;;;;;;;24.47;21.97;;;13.30;99.90;;;;;;5091601;28;20470;-55
2021/09/14 03:25:19;;;;;;;23.30;21.00;;;13.30;99.90;;;;;;5086971;28;20548;-59
2021/09/14 03:27:45;;;;;;;23.47;21.17;;;13.30;99.90;;;;;;5070865;28;20185;-54
2021/09/14 03:30:11;;;;;;;23.37;21.07;;;13.30;99.90;;;;;;5064378;28;20297;-56
2021/09/14 03:32:37;;;;;;;23.40;21.00;;;13.30;99.90;;;;;;5070055;28;20702;-57
2021/09/14 03:35:03;;;;;;;22.97;20.27;;;13.40;99.90;;;;;;5071204;28;20220;-59
2021/09/14 03:37:28;;;;;;;22.57;20.30;;;13.40;99.90;;;;;;5068926;28;20947;-55
2021/09/14 03:39:54;;;;;;;22.33;20.13;;;13.50;99.90;;;;;;5071263;28;20423;-55
2021/09/14 03:42:19;;;;;;;21.80;19.60;;;13.50;99.90;;;;;;5070004;28;20261;-54
2021/09/14 03:44:45;;;;;;;22.63;20.43;;;13.50;99.90;;;;;;5070891;28;20558;-56
2021/09/14 03:47:11;;;;;;;22.43;20.13;;;13.50;99.90;;;;;;5070649;28;20197;-51
2021/09/14 03:49:36;;;;;;;23.07;20.67;;;13.60;99.90;;;;;;5070181;28;20189;-55
2021/09/14 03:52:02;;;;;;;22.30;19.90;;;13.60;99.90;;;;;;5088655;28;20238;-56
2021/09/14 03:54:27;;;;;;;22.80;20.60;;;13.50;99.90;;;;;;5081793;28;20564;-57
2021/09/14 03:56:53;;;;;;;20.80;18.70;;;13.50;99.90;;;;;;5088236;28;20237;-53
2021/09/14 03:59:19;;;;;;;20.53;18.33;;;13.50;99.90;;;;;;5075809;28;20539;-54
2021/09/14 04:01:50;;;;;;;20.00;18.00;;;13.40;99.90;;;;;;5074352;28;20197;-59
2021/09/14 04:04:21;;;;;;;20.73;18.77;;;13.40;99.90;;;;;;5071417;28;20201;-56
2021/09/14 04:07:11;;;;;;;20.70;18.70;;;13.50;99.90;;;;;;5069520;28;20876;-54
2021/09/14 04:09:37;;;;;;;25.47;19.97;;;13.40;99.90;;;;;;5069083;28;20440;-56
2021/09/14 04:12:03;;;;;;;20.70;18.60;;;13.30;99.90;;;;;;5070112;28;20435;-56
2021/09/14 04:14:29;;;;;;;20.13;18.10;;;13.20;99.90;;;;;;5071936;28;20447;-54
2021/09/14 04:16:55;;;;;;;20.63;18.53;;;13.10;99.90;;;;;;5090832;28;20647;-53
2021/09/14 04:19:21;;;;;;;20.87;18.67;;;13.10;99.90;;;;;;5080133;28;20504;-54
2021/09/14 04:21:47;;;;;;;20.37;18.27;;;13.10;99.90;;;;;;5080678;28;20904;-55
2021/09/14 04:24:13;;;;;;;21.50;19.40;;;13.10;99.90;;;;;;5077782;28;20518;-55
2021/09/14 04:26:39;;;;;;;21.97;19.87;;;13.10;99.90;;;;;;5077150;28;20184;-56
2021/09/14 04:29:04;;;;;;;21.27;18.00;;;13.00;99.90;;;;;;5075277;28;20433;-57
2021/09/14 04:31:30;;;;;;;20.20;18.30;;;13.00;99.90;;;;;;5081594;28;20193;-51
2021/09/14 04:33:56;;;;;;;20.53;18.60;;;13.00;99.90;;;;;;5080039;28;20193;-55
2021/09/14 04:36:21;;;;;;;21.90;19.73;;;13.00;99.90;;;;;;5078248;28;20196;-54
2021/09/14 04:38:47;;;;;;;21.17;18.97;;;13.00;99.90;;;;;;5081140;28;20203;-54
2021/09/14 04:41:13;;;;;;;21.47;19.27;;;13.00;99.90;;;;;;5074220;28;20620;-56
2021/09/14 04:43:38;;;;;;;21.33;19.30;;;13.10;99.90;;;;;;5063957;28;20242;-57
2021/09/14 04:46:04;;;;;;;21.50;19.37;;;13.10;99.90;;;;;;5069139;28;20185;-51
2021/09/14 04:48:30;;;;;;;20.90;18.80;;;13.10;99.90;;;;;;5069772;28;20181;-54
2021/09/14 04:50:55;;;;;;;21.70;19.50;;;13.10;99.90;;;;;;5071325;28;20435;-56
2021/09/14 04:53:21;;;;;;;21.23;18.73;;;13.10;99.90;;;;;;5068722;28;20188;-56
2021/09/14 04:55:47;;;;;;;21.73;19.63;;;13.20;99.90;;;;;;5089425;28;20867;-54
2021/09/14 04:58:12;;;;;;;20.57;18.40;;;13.20;99.90;;;;;;5090037;28;20183;-57
2021/09/14 05:00:38;;;;;;;21.20;19.10;;;13.20;99.90;;;;;;5078036;28;20931;-56
2021/09/14 05:03:03;;;;;;;21.57;19.37;;;13.20;99.90;;;;;;5069303;28;20643;-54
2021/09/14 05:05:29;;;;;;;20.83;18.73;;;13.20;99.90;;;;;;5068673;28;20219;-55
2021/09/14 05:07:55;;;;;;;20.87;18.77;;;13.20;99.90;;;;;;5069330;28;20544;-56
2021/09/14 05:10:21;;;;;;;21.70;19.40;;;13.20;99.90;;;;;;5068633;28;20189;-56
2021/09/14 05:12:46;;;;;;;21.60;19.30;;;13.10;99.90;;;;;;5069685;28;20420;-53
2021/09/14 05:15:12;;;;;;;23.57;19.60;;;13.20;99.90;;;;;;5069434;28;20259;-56
2021/09/14 05:17:37;;;;;;;22.00;19.67;;;13.10;99.90;;;;;;5068022;28;20193;-55
2021/09/14 05:20:05;;;;;;;21.20;19.00;;;13.10;99.90;;;;;;5067291;28;20200;-56
2021/09/14 05:22:33;;;;;;;22.17;19.80;;;13.10;99.90;;;;;;5080484;28;20216;-52
2021/09/14 05:25:00;;;;;;;21.57;19.27;;;13.20;99.90;;;;;;5087645;28;20419;-54
2021/09/14 05:27:25;;;;;;;21.90;19.60;;;13.10;99.90;;;;;;5079244;28;20423;-57
2021/09/14 05:29:51;;;;;;;20.33;18.30;;;13.10;99.90;;;;;;5089364;28;20452;-56
2021/09/14 05:32:17;;;;;;;21.73;19.30;;;13.10;99.90;;;;;;5089404;28;20633;-53
2021/09/14 05:34:47;;;;;;;21.30;18.63;;;13.10;99.90;;;;;;5088991;28;20189;-52
2021/09/14 05:37:14;;;;;;;22.20;19.87;;;13.10;99.90;;;;;;5089512;28;20423;-54
2021/09/14 05:39:39;;;;;;;22.40;20.10;;;13.10;99.90;;;;;;5089376;28;20935;-55
2021/09/14 05:42:07;;;;;;;21.73;19.30;;;13.10;99.90;;;;;;5072979;28;20423;-55
2021/09/14 05:44:34;;;;;;;23.03;20.63;;;13.10;99.90;;;;;;5069100;28;20300;-58
2021/09/14 05:47:03;;;;;;;26.77;20.70;;;13.10;99.90;;;;;;5073280;28;20426;-54
2021/09/14 05:49:28;;;;;;;22.77;20.40;;;13.20;99.90;;;;;;5089016;28;20414;-55
2021/09/14 05:51:55;;;;;;;20.27;18.17;;;13.30;99.90;;;;;;5089271;28;20423;-53
2021/09/14 05:54:20;;;;;;;21.17;18.83;;;13.20;99.90;;;;;;5089094;28;20238;-55
2021/09/14 05:56:46;;;;;;;20.97;18.77;;;13.30;99.90;;;;;;5089294;28;20427;-52
2021/09/14 05:59:11;;;;;;;21.20;18.87;;;13.20;99.90;;;;;;5087747;28;20189;-55
2021/09/14 06:01:37;;;;;;;21.73;19.27;;;13.10;99.90;;;;;;5088864;28;20839;-57
2021/09/14 06:04:02;;;;;;;21.57;19.47;;;13.00;99.90;;;;;;5076397;28;20217;-55
2021/09/14 06:06:28;;;;;;;20.23;18.20;;;13.00;99.90;;;;;;5087114;28;20651;-53
2021/09/14 06:08:54;;;;;;;22.33;20.13;;;13.00;99.90;;;;;;5068571;28;20641;-55
2021/09/14 06:11:19;;;;;;;19.50;17.60;;;13.00;99.90;;;;;;5066912;28;20178;-54
2021/09/14 06:13:45;;;;;;;20.57;18.50;;;13.10;99.90;;;;;;5069034;28;20268;-53
2021/09/14 06:16:11;;;;;;;21.40;19.20;;;13.10;99.90;;;;;;5071442;28;20197;-53
2021/09/14 06:18:37;;;;;;;19.93;17.93;;;13.10;99.90;;;;;;5070293;28;20805;-56
2021/09/14 06:21:03;;;;;;;21.73;19.43;;;13.10;99.90;;;;;;5072865;28;20194;-52
2021/09/14 06:23:28;;;;;;;21.77;19.57;;;13.10;99.90;;;;;;5071382;28;20221;-56
2021/09/14 06:25:54;;;;;;;20.00;17.50;;;13.20;99.90;;;;;;5072243;28;20424;-54
2021/09/14 06:28:19;;;;;;;21.00;18.80;;;13.30;99.90;;;;;;5072517;28;20184;-50
2021/09/14 06:30:45;;;;;;;20.53;18.53;;;13.40;99.90;;;;;;5072482;28;20632;-56
2021/09/14 06:33:11;;;;;;;19.93;17.93;;;13.60;99.90;;;;;;5072540;28;20193;-52
2021/09/14 06:35:36;;;;;;;20.43;18.40;;;13.80;99.90;;;;;;5072174;28;20186;-56
2021/09/14 06:38:03;;;;;;;19.77;17.87;;;13.80;99.90;;;;;;5072506;28;20178;-55
2021/09/14 06:40:29;;;;;;;19.13;17.23;;;13.90;99.90;;;;;;5065132;28;20593;-57
2021/09/14 06:42:55;;;;;;;19.77;16.67;;;14.00;99.90;;;;;;5066706;28;20536;-52
2021/09/14 06:45:20;;;;;;;18.10;16.20;;;14.00;99.90;;;;;;5071787;28;20182;-54
2021/09/14 06:47:46;;;;;;;18.90;17.00;;;14.10;99.90;;;;;;5072225;28;20462;-54
2021/09/14 06:50:11;;;;;;;19.77;17.87;;;14.10;99.90;;;;;;5071932;28;20179;-48
2021/09/14 06:52:38;;;;;;;17.90;16.13;;;14.20;99.90;;;;;;5072159;28;20182;-53
2021/09/14 06:55:05;;;;;;;17.33;15.70;;;14.20;99.90;;;;;;5071616;28;20611;-52
2021/09/14 06:57:31;;;;;;;17.77;16.07;;;14.20;99.90;;;;;;5070467;28;20436;-53
2021/09/14 06:59:56;;;;;;;18.73;16.83;;;14.30;99.90;;;;;;5071558;28;20759;-55
2021/09/14 07:02:22;;;;;;;16.33;14.83;;;14.40;99.90;;;;;;5078906;28;20189;-54
2021/09/14 07:04:47;;;;;;;17.17;15.47;;;14.60;99.90;;;;;;5091776;28;20180;-57
2021/09/14 07:07:13;;;;;;;16.87;15.20;;;14.70;99.90;;;;;;5091899;28;20212;-52
2021/09/14 07:09:40;;;;;;;15.77;14.37;;;14.80;99.90;;;;;;5091719;28;20690;-53
2021/09/14 07:12:06;;;;;;;15.90;14.20;;;14.90;99.90;;;;;;5091748;28;20255;-55
2021/09/14 07:14:32;;;;;;;15.80;14.30;;;15.00;99.90;;;;;;5091695;28;20735;-55
2021/09/14 07:16:57;;;;;;;17.40;15.00;;;15.30;99.90;;;;;;5091428;28;20419;-55
2021/09/14 07:19:23;;;;;;;14.50;13.10;;;15.40;99.90;;;;;;5088299;28;20185;-50
2021/09/14 07:21:48;;;;;;;14.00;12.70;;;15.60;99.90;;;;;;5080283;28;20197;-55
2021/09/14 07:24:14;;;;;;;14.80;13.50;;;15.70;99.90;;;;;;5091475;28;20780;-54
2021/09/14 07:26:39;;;;;;;14.20;12.90;;;15.80;99.90;;;;;;5083783;28;20204;-55
2021/09/14 07:29:06;;;;;;;14.30;13.00;;;16.00;99.90;;;;;;5071450;28;20529;-56
2021/09/14 07:31:33;;;;;;;13.00;11.80;;;16.10;99.90;;;;;;5091399;28;20185;-58
2021/09/14 07:33:58;;;;;;;13.70;12.17;;;16.20;99.90;;;;;;5091243;28;20495;-55
2021/09/14 07:36:25;;;;;;;12.73;11.43;;;16.30;99.90;;;;;;5091181;28;20427;-56
2021/09/14 07:38:50;;;;;;;12.40;11.30;;;16.50;99.90;;;;;;5091241;28;20189;-54
2021/09/14 07:41:16;;;;;;;12.63;11.43;;;16.60;99.90;;;;;;5081607;28;20477;-56
2021/09/14 07:43:41;;;;;;;11.60;10.50;;;16.80;99.90;;;;;;5070530;28;20351;-55
2021/09/14 07:46:09;;;;;;;12.27;11.17;;;17.00;99.90;;;;;;5070629;28;20183;-59
2021/09/14 07:48:36;;;;;;;12.17;11.00;;;17.30;99.90;;;;;;5070486;28;20186;-56
2021/09/14 07:51:02;;;;;;;12.60;11.50;;;17.50;99.90;;;;;;5069700;28;20790;-54
2021/09/14 07:53:27;;;;;;;11.70;10.67;;;17.60;99.90;;;;;;5070860;28;20418;-57
2021/09/14 07:55:53;;;;;;;11.10;9.97;;;17.70;99.90;;;;;;5070875;28;20194;-56
2021/09/14 07:58:18;;;;;;;11.90;10.87;;;17.80;99.90;;;;;;5070633;28;20231;-55
2021/09/14 08:00:44;;;;;;;12.40;11.20;;;18.00;99.90;;;;;;5067208;28;20216;-57
2021/09/14 08:03:11;;;;;;;10.80;9.90;;;18.20;99.90;;;;;;5070448;28;20599;-57
2021/09/14 08:05:39;;;;;;;11.17;10.17;;;18.50;99.90;;;;;;5077907;28;20184;-57
2021/09/14 08:08:08;;;;;;;10.50;9.60;;;18.70;99.90;;;;;;5086305;28;20427;-57
2021/09/14 08:10:34;;;;;;;11.17;10.27;;;19.00;99.90;;;;;;5089541;28;20413;-57
2021/09/14 08:13:00;;;;;;;10.97;10.10;;;19.20;99.90;;;;;;5090484;28;20427;-51
2021/09/14 08:15:25;;;;;;;11.33;10.33;;;19.40;99.90;;;;;;5090742;28;20812;-56
2021/09/14 08:17:51;;;;;;;10.30;9.50;;;19.60;99.90;;;;;;5090551;28;20196;-56
2021/09/14 08:20:17;;;;;;;10.67;9.77;;;20.00;99.90;;;;;;5090778;28;20653;-57
2021/09/14 08:22:42;;;;;;;10.83;9.93;;;20.30;99.90;;;;;;5074293;28;20201;-54
2021/09/14 08:25:08;;;;;;;10.40;9.50;;;20.80;99.90;;;;;;5087372;28;20179;-57
2021/09/14 08:27:34;;;;;;;11.17;10.17;;;21.10;99.90;;;;;;5086066;28;20978;-54
2021/09/14 08:30:00;;;;;;;9.60;8.90;;;21.50;99.90;;;;;;5090274;28;20427;-58
2021/09/14 08:32:26;;;;;;;10.43;9.63;;;21.90;99.90;;;;;;5090334;28;20571;-56
2021/09/14 08:34:51;;;;;;;10.47;9.67;;;22.50;99.90;;;;;;5071866;28;20442;-52
2021/09/14 08:37:17;;;;;;;10.60;9.70;;;23.20;99.90;;;;;;5062022;28;20654;-57
2021/09/14 08:39:42;;;;;;;10.03;9.23;;;23.80;99.90;;;;;;5071701;28;20214;-59
2021/09/14 08:42:08;;;;;;;10.17;9.50;;;24.60;99.90;;;;;;5070285;28;20181;-57
2021/09/14 08:44:38;;;;;;;11.00;10.10;;;25.20;98.80;;;;;;5051419;28;20219;-55
2021/09/14 08:47:06;;;;;;;10.70;9.80;;;26.00;96.00;;;;;;5051631;28;20184;-53
2021/09/14 08:49:32;;;;;;;10.93;10.17;;;26.40;93.80;;;;;;5051942;28;20385;-56
2021/09/14 08:51:57;;;;;;;11.23;10.53;;;26.20;93.20;;;;;;5066297;28;20425;-58
2021/09/14 08:54:23;;;;;;;10.70;9.90;;;26.80;92.60;;;;;;5074691;28;20420;-57
2021/09/14 08:56:49;;;;;;;10.83;10.13;;;27.50;90.60;;;;;;5071200;28;20274;-58
2021/09/14 08:59:28;;;;;;;11.00;10.30;;;27.80;90.30;;;;;;5069798;28;20203;-58
2021/09/14 09:02:12;;;;;;;11.03;10.30;;;28.00;87.80;;;;;;5071570;28;20977;-58
2021/09/14 09:04:38;;;;;;;11.83;10.97;;;28.60;83.60;;;;;;5063542;28;20543;-56
2021/09/14 09:07:04;;;;;;;11.00;10.20;;;28.80;78.60;;;;;;5070946;28;20854;-53
2021/09/14 09:09:32;;;;;;;11.23;10.53;;;29.60;76.40;;;;;;5071795;28;20420;-56
2021/09/14 09:12:03;;;;;;;10.83;10.20;;;30.00;73.40;;;;;;5071164;28;20193;-58
2021/09/14 09:14:31;;;;;;;10.13;9.53;;;30.70;71.70;;;;;;5088585;28;20432;-57
2021/09/14 09:17:05;;;;;;;13.20;12.40;;;30.90;65.70;;;;;;5090251;28;20422;-57
2021/09/14 09:19:31;;;;;;;11.03;10.30;;;31.30;61.60;;;;;;5085481;28;20428;-57
2021/09/14 09:21:58;;;;;;;11.13;10.43;;;31.70;61.50;;;;;;5090103;28;20423;-57
2021/09/14 09:24:24;;;;;;;10.57;9.97;;;31.60;56.50;;;;;;5064718;28;20214;-55
2021/09/14 09:26:50;;;;;;;10.20;9.60;;;31.40;56.40;;;;;;5051008;28;20466;-54
2021/09/14 09:29:21;;;;;;;11.10;10.50;;;31.40;55.90;;;;;;5050820;28;20404;-57
2021/09/14 09:31:48;;;;;;;10.90;10.20;;;31.60;54.90;;;;;;5050872;28;20934;-56
2021/09/14 09:34:14;;;;;;;10.80;10.10;;;32.10;54.30;;;;;;5063196;28;20439;-54
2021/09/14 09:36:43;;;;;;;10.57;9.87;;;32.10;51.80;;;;;;5062673;28;20534;-56
2021/09/14 09:39:18;;;;;;;10.63;10.03;;;31.80;99.90;;;;;;5079529;28;20445;-57
2021/09/14 09:41:57;;;;;;;10.30;9.70;;;32.50;99.90;;;;;;5072935;28;20423;-55
2021/09/14 09:44:23;;;;;;;11.37;10.67;;;32.70;99.90;;;;;;5068414;28;20597;-57
2021/09/14 09:46:56;;;;;;;10.10;9.47;;;32.90;99.90;;;;;;5069125;28;20420;-55
2021/09/14 09:49:22;;;;;;;9.70;9.13;;;32.70;99.90;;;;;;5073659;28;20245;-58
2021/09/14 09:51:50;;;;;;;10.23;9.63;;;33.10;99.90;;;;;;5092548;28;20465;-54
2021/09/14 09:54:17;;;;;;;10.07;9.47;;;33.30;99.90;;;;;;5085801;28;20542;-56
2021/09/14 09:56:45;;;;;;;10.40;9.70;;;33.90;99.90;;;;;;5066478;28;20427;-56
2021/09/14 09:59:12;;;;;;;9.40;8.80;;;34.30;99.90;;;;;;5089188;28;20525;-56
2021/09/14 10:01:39;;;;;;;9.17;8.63;;;34.20;99.90;;;;;;5093122;28;20809;-57
2021/09/14 10:04:09;;;;;;;10.13;9.47;;;34.00;99.90;;;;;;5090513;28;20996;-56
2021/09/14 10:06:38;;;;;;;9.60;9.10;;;34.10;99.90;;;;;;5091118;28;20415;-55
2021/09/14 10:09:05;;;;;;;9.40;8.80;;;34.40;99.90;;;;;;5090268;28;20439;-55
2021/09/14 10:11:32;;;;;;;10.50;9.80;;;34.80;99.90;;;;;;5093172;28;20774;-56
2021/09/14 10:14:03;;;;;;;9.77;9.17;;;35.10;99.90;;;;;;5092533;28;20425;-54
2021/09/14 10:16:29;;;;;;;9.70;9.00;;;35.80;99.90;;;;;;5092825;28;20465;-56
2021/09/14 10:18:54;;;;;;;8.63;8.17;;;35.70;99.90;;;;;;5092857;28;21002;-57
2021/09/14 10:21:20;;;;;;;10.10;9.50;;;35.60;99.90;;;;;;5085277;28;20691;-57
2021/09/14 10:23:55;;;;;;;9.70;9.10;;;35.80;99.90;;;;;;5069221;28;20220;-57
2021/09/14 10:26:34;;;;;;;9.53;8.93;;;35.60;99.90;;;;;;5075413;28;20502;-57
2021/09/14 10:29:14;;;;;;;9.23;8.73;;;36.00;99.90;;;;;;5068522;28;20944;-57
2021/09/14 10:31:41;;;;;;;9.00;8.50;;;35.80;99.90;;;;;;5082683;28;20472;-58
2021/09/14 10:34:15;;;;;;;8.77;8.27;;;35.70;99.90;;;;;;5081603;28;20897;-55
2021/09/14 10:36:46;;;;;;;9.60;9.03;;;35.80;99.90;;;;;;5080730;28;20424;-55
2021/09/14 10:39:22;;;;;;;10.80;10.20;;;35.60;99.90;;;;;;5087308;28;20419;-58
2021/09/14 10:41:51;;;;;;;9.70;9.20;;;35.20;99.90;;;;;;5084805;28;20434;-58
2021/09/14 10:44:31;;;;;;;9.77;9.17;;;36.30;99.90;;;;;;5077327;28;20514;-58
2021/09/14 10:47:10;;;;;;;9.23;8.73;;;36.70;99.90;;;;;;5083483;28;20427;-57
2021/09/14 10:49:59;;;;;;;8.60;8.20;;;36.30;99.90;;;;;;5076295;28;20505;-58
2021/09/14 10:52:32;;;;;;;8.40;7.97;;;36.00;99.90;;;;;;5091879;28;20982;-57
2021/09/14 10:54:58;;;;;;;9.40;8.90;;;36.20;99.90;;;;;;5070699;28;21143;-55
2021/09/14 10:57:44;;;;;;;8.20;7.80;;;36.40;99.90;;;;;;5085256;28;20441;-50
2021/09/14 11:00:11;;;;;;;8.27;7.87;;;36.40;99.90;;;;;;5068449;28;20415;-59
2021/09/14 11:02:38;;;;;;;9.00;8.50;;;36.90;99.90;;;;;;5090547;28;20411;-58
2021/09/14 11:05:05;;;;;;;8.87;8.37;;;36.80;99.90;;;;;;5089905;28;20469;-57
2021/09/14 11:07:31;;;;;;;8.20;7.70;;;36.40;99.90;;;;;;5082585;28;20799;-58
2021/09/14 11:10:00;;;;;;;8.80;8.30;;;37.00;99.90;;;;;;5091151;28;20423;-58
2021/09/14 11:12:28;;;;;;;9.60;8.97;;;36.50;99.90;;;;;;5091072;28;20517;-57
2021/09/14 11:14:57;;;;;;;9.07;8.50;;;36.60;99.90;;;;;;5091040;28;20442;-57
2021/09/14 11:17:41;;;;;;;9.30;8.70;;;37.00;99.90;;;;;;5084448;28;20428;-51
2021/09/14 11:20:09;;;;;;;9.10;8.50;;;36.90;99.90;;;;;;5087964;28;20521;-58
2021/09/14 11:22:37;;;;;;;8.40;8.00;;;37.30;99.90;;;;;;5091878;28;20426;-58
2021/09/14 11:25:05;;;;;;;8.63;8.13;;;37.50;99.90;;;;;;5090484;28;20905;-57
2021/09/14 11:27:31;;;;;;;8.80;8.30;;;37.50;99.90;;;;;;5090869;28;20560;-58
2021/09/14 11:29:57;;;;;;;8.90;8.40;;;37.50;99.90;;;;;;5091695;28;20437;-58
2021/09/14 11:32:24;;;;;;;9.47;8.97;;;37.50;99.90;;;;;;5088922;28;21002;-57
2021/09/14 11:34:52;;;;;;;9.27;8.77;;;37.30;99.90;;;;;;5069893;28;20475;-58
2021/09/14 11:37:29;;;;;;;10.30;9.60;;;37.60;99.90;;;;;;5070870;28;20435;-58
2021/09/14 11:39:55;;;;;;;9.93;9.43;;;37.90;99.90;;;;;;5071160;28;20428;-59
2021/09/14 11:42:20;;;;;;;9.30;8.80;;;38.00;99.90;;;;;;5087409;28;20842;-58
2021/09/14 11:44:46;;;;;;;9.20;8.70;;;38.50;99.90;;;;;;5083479;28;20208;-57
2021/09/14 11:47:12;;;;;;;9.43;8.90;;;38.70;99.90;;;;;;5091004;28;20185;-58
2021/09/14 11:49:38;;;;;;;9.43;8.93;;;38.50;99.90;;;;;;5091275;28;20430;-57
2021/09/14 11:52:05;;;;;;;9.20;8.70;;;39.10;99.90;;;;;;5089930;28;20181;-58
2021/09/14 11:54:35;;;;;;;9.20;8.63;;;38.40;99.90;;;;;;5072777;28;20225;-55
2021/09/14 11:57:01;;;;;;;8.60;8.10;;;38.60;99.90;;;;;;5088069;28;20435;-59
2021/09/14 11:59:39;;;;;;;8.67;8.27;;;39.00;99.90;;;;;;5091106;28;20434;-54
2021/09/14 12:02:05;;;;;;;8.53;8.03;;;38.90;99.90;;;;;;5090962;28;20418;-58
2021/09/14 12:04:31;;;;;;;8.70;8.30;;;39.40;99.90;;;;;;5074474;28;21312;-59
2021/09/14 12:06:59;;;;;;;9.43;8.87;;;39.10;99.90;;;;;;5070624;28;20200;-58
2021/09/14 12:09:28;;;;;;;8.60;8.10;;;38.50;99.90;;;;;;5081173;28;20251;-57
2021/09/14 12:12:01;;;;;;;9.20;8.70;;;38.80;99.90;;;;;;5090338;28;20427;-54
2021/09/14 12:14:28;;;;;;;9.03;8.63;;;37.80;99.90;;;;;;5078891;28;20472;-50
2021/09/14 12:17:03;;;;;;;9.27;8.67;;;37.80;99.90;;;;;;5089159;28;20480;-57
2021/09/14 12:19:30;;;;;;;8.20;7.80;;;37.40;99.90;;;;;;5075521;28;20507;-58
2021/09/14 12:21:56;;;;;;;9.20;8.70;;;37.60;99.90;;;;;;5086299;28;20428;-59
2021/09/14 12:24:22;;;;;;;8.87;8.37;;;37.20;99.90;;;;;;5081584;28;20905;-59
2021/09/14 12:26:51;;;;;;;9.47;8.97;;;37.20;99.90;;;;;;5072967;28;20443;-59
2021/09/14 12:29:19;;;;;;;9.77;9.27;;;37.50;99.90;;;;;;5070117;28;20182;-58
2021/09/14 12:31:45;;;;;;;9.80;9.20;;;37.80;99.90;;;;;;5087669;28;20580;-58
2021/09/14 12:34:10;;;;;;;7.77;7.37;;;38.00;99.90;;;;;;5088768;28;20462;-52
2021/09/14 12:36:41;;;;;;;9.23;8.73;;;38.10;99.90;;;;;;5088545;28;20438;-58
2021/09/14 12:39:07;;;;;;;9.13;8.63;;;38.10;99.90;;;;;;5089630;28;20892;-59
2021/09/14 12:41:33;;;;;;;9.43;8.93;;;38.00;99.90;;;;;;5071219;28;20442;-58
2021/09/14 12:43:59;;;;;;;9.20;8.70;;;38.10;99.90;;;;;;5076772;28;20471;-59
2021/09/14 12:46:24;;;;;;;9.53;9.03;;;37.80;99.90;;;;;;5090145;28;20662;-59
2021/09/14 12:48:50;;;;;;;9.50;9.00;;;37.50;99.90;;;;;;5089950;28;20185;-59
2021/09/14 12:51:16;;;;;;;9.37;8.87;;;37.50;99.90;;;;;;5090071;28;20535;-59
2021/09/14 12:53:42;;;;;;;9.60;9.10;;;37.50;99.90;;;;;;5090077;28;20232;-59
2021/09/14 12:56:09;;;;;;;9.30;8.80;;;37.60;99.90;;;;;;5088909;28;20216;-59
2021/09/14 12:58:36;;;;;;;8.23;7.80;;;37.90;99.90;;;;;;5090060;28;21131;-59
2021/09/14 13:01:01;;;;;;;8.50;8.00;;;38.00;99.90;;;;;;5089171;28;20446;-59
2021/09/14 13:03:27;;;;;;;8.20;7.80;;;38.50;99.90;;;;;;5083317;28;20427;-53
2021/09/14 13:05:52;;;;;;;8.93;8.43;;;38.50;99.90;;;;;;5089647;28;20185;-59
2021/09/14 13:08:18;;;;;;;8.77;8.23;;;38.20;99.90;;;;;;5087012;28;20932;-58
2021/09/14 13:10:43;;;;;;;9.30;8.80;;;38.10;99.90;;;;;;5090036;28;20193;-59
2021/09/14 13:16:12;;;;;;;8.87;8.37;;;37.90;99.90;;;;;;5089527;28;20219;-59
2021/09/14 13:18:40;;;;;;;9.57;9.07;;;37.80;99.90;;;;;;5088771;28;20441;-56
2021/09/14 13:21:06;;;;;;;8.80;8.40;;;38.20;99.90;;;;;;5083109;28;20526;-57
2021/09/14 13:23:32;;;;;;;9.47;8.90;;;38.30;99.90;;;;;;5087810;28;20457;-59
2021/09/14 13:25:58;;;;;;;9.00;8.50;;;38.10;99.90;;;;;;5078772;28;20458;-59
2021/09/14 13:28:24;;;;;;;8.20;7.80;;;37.60;99.90;;;;;;5079514;28;20492;-60
2021/09/14 13:30:49;;;;;;;8.30;7.80;;;37.70;99.90;;;;;;5088664;28;20185;-59